sensor_id;sensor_type;location;lat;lon;timestamp;P1;durP1;ratioP1;P2;durP2;ratioP2
7929;SDS011;4010;42.698;23.124;2022-08-27T00:01:05;9.37;;;4.87;;
7929;SDS011;4010;42.698;23.124;2022-08-27T00:03:32;8.50;;;4.73;;
7929;SDS011;4010;42.698;23.124;2022-08-27T00:05:59;12.97;;;5.20;;
7929;SDS011;4010;42.698;23.124;2022-08-27T00:08:26;11.63;;;4.63;;
7929;SDS011;4010;42.698;23.124;2022-08-27T00:10:54;8.43;;;4.50;;
7929;SDS011;4010;42.698;23.124;2022-08-27T00:13:21;8.40;;;4.73;;
7929;SDS011;4010;42.698;23.124;2022-08-27T00:15:48;8.37;;;3.87;;
7929;SDS011;4010;42.698;23.124;2022-08-27T00:18:15;7.33;;;4.20;;
7929;SDS011;4010;42.698;23.124;2022-08-27T00:20:42;11.70;;;3.90;;
7929;SDS011;4010;42.698;23.124;2022-08-27T00:23:08;10.13;;;4.03;;
7929;SDS011;4010;42.698;23.124;2022-08-27T00:25:35;9.63;;;4.40;;
7929;SDS011;4010;42.698;23.124;2022-08-27T00:28:03;6.83;;;4.90;;
7929;SDS011;4010;42.698;23.124;2022-08-27T00:30:30;9.67;;;4.23;;
7929;SDS011;4010;42.698;23.124;2022-08-27T00:32:57;6.20;;;4.20;;
7929;SDS011;4010;42.698;23.124;2022-08-27T00:35:23;10.13;;;4.47;;
7929;SDS011;4010;42.698;23.124;2022-08-27T00:37:51;8.57;;;4.30;;
7929;SDS011;4010;42.698;23.124;2022-08-27T00:40:18;6.17;;;4.00;;
7929;SDS011;4010;42.698;23.124;2022-08-27T00:42:47;8.27;;;4.00;;
7929;SDS011;4010;42.698;23.124;2022-08-27T00:45:18;7.63;;;4.63;;
7929;SDS011;4010;42.698;23.124;2022-08-27T00:47:49;7.47;;;4.23;;
7929;SDS011;4010;42.698;23.124;2022-08-27T00:50:21;10.20;;;4.10;;
7929;SDS011;4010;42.698;23.124;2022-08-27T00:52:54;12.80;;;4.33;;
7929;SDS011;4010;42.698;23.124;2022-08-27T00:55:26;6.87;;;4.43;;
7929;SDS011;4010;42.698;23.124;2022-08-27T00:57:56;6.43;;;4.57;;
7929;SDS011;4010;42.698;23.124;2022-08-27T01:00:31;6.80;;;4.60;;
7929;SDS011;4010;42.698;23.124;2022-08-27T01:02:58;11.13;;;4.70;;
7929;SDS011;4010;42.698;23.124;2022-08-27T01:05:24;8.37;;;5.20;;
7929;SDS011;4010;42.698;23.124;2022-08-27T01:07:53;7.97;;;4.20;;
7929;SDS011;4010;42.698;23.124;2022-08-27T01:10:24;10.93;;;4.97;;
7929;SDS011;4010;42.698;23.124;2022-08-27T01:12:53;11.70;;;4.90;;
7929;SDS011;4010;42.698;23.124;2022-08-27T01:15:21;8.87;;;4.77;;
7929;SDS011;4010;42.698;23.124;2022-08-27T01:17:52;9.20;;;4.70;;
7929;SDS011;4010;42.698;23.124;2022-08-27T01:20:20;7.50;;;4.47;;
7929;SDS011;4010;42.698;23.124;2022-08-27T01:22:52;7.10;;;4.53;;
7929;SDS011;4010;42.698;23.124;2022-08-27T01:25:27;11.20;;;4.60;;
7929;SDS011;4010;42.698;23.124;2022-08-27T01:27:55;10.77;;;4.73;;
7929;SDS011;4010;42.698;23.124;2022-08-27T01:30:23;6.90;;;4.90;;
7929;SDS011;4010;42.698;23.124;2022-08-27T01:32:51;11.00;;;4.87;;
7929;SDS011;4010;42.698;23.124;2022-08-27T01:35:19;9.50;;;5.13;;
7929;SDS011;4010;42.698;23.124;2022-08-27T01:37:47;9.00;;;5.23;;
7929;SDS011;4010;42.698;23.124;2022-08-27T01:40:16;6.57;;;4.60;;
7929;SDS011;4010;42.698;23.124;2022-08-27T01:42:46;8.17;;;3.97;;
7929;SDS011;4010;42.698;23.124;2022-08-27T01:45:16;6.90;;;4.73;;
7929;SDS011;4010;42.698;23.124;2022-08-27T01:47:43;10.00;;;4.47;;
7929;SDS011;4010;42.698;23.124;2022-08-27T01:50:12;8.70;;;5.33;;
7929;SDS011;4010;42.698;23.124;2022-08-27T01:52:40;6.60;;;4.93;;
7929;SDS011;4010;42.698;23.124;2022-08-27T01:55:08;7.73;;;4.80;;
7929;SDS011;4010;42.698;23.124;2022-08-27T01:57:37;7.97;;;4.73;;
7929;SDS011;4010;42.698;23.124;2022-08-27T02:00:07;12.23;;;5.27;;
7929;SDS011;4010;42.698;23.124;2022-08-27T02:02:36;10.80;;;5.10;;
7929;SDS011;4010;42.698;23.124;2022-08-27T02:05:04;9.97;;;5.30;;
7929;SDS011;4010;42.698;23.124;2022-08-27T02:07:31;6.33;;;4.70;;
7929;SDS011;4010;42.698;23.124;2022-08-27T02:09:58;10.03;;;5.00;;
7929;SDS011;4010;42.698;23.124;2022-08-27T02:12:24;10.60;;;5.40;;
7929;SDS011;4010;42.698;23.124;2022-08-27T02:14:51;12.00;;;5.20;;
7929;SDS011;4010;42.698;23.124;2022-08-27T02:17:19;6.63;;;5.23;;
7929;SDS011;4010;42.698;23.124;2022-08-27T02:19:46;10.53;;;5.10;;
7929;SDS011;4010;42.698;23.124;2022-08-27T02:22:13;12.87;;;5.00;;
7929;SDS011;4010;42.698;23.124;2022-08-27T02:24:40;7.37;;;5.43;;
7929;SDS011;4010;42.698;23.124;2022-08-27T02:27:07;8.90;;;5.33;;
7929;SDS011;4010;42.698;23.124;2022-08-27T02:29:33;9.47;;;5.50;;
7929;SDS011;4010;42.698;23.124;2022-08-27T02:32:00;8.37;;;5.53;;
7929;SDS011;4010;42.698;23.124;2022-08-27T02:34:29;7.57;;;5.20;;
7929;SDS011;4010;42.698;23.124;2022-08-27T02:36:56;5.93;;;5.03;;
7929;SDS011;4010;42.698;23.124;2022-08-27T02:39:22;7.60;;;4.67;;
7929;SDS011;4010;42.698;23.124;2022-08-27T02:41:49;7.03;;;4.77;;
7929;SDS011;4010;42.698;23.124;2022-08-27T02:44:16;10.20;;;5.40;;
7929;SDS011;4010;42.698;23.124;2022-08-27T02:46:42;5.50;;;4.60;;
7929;SDS011;4010;42.698;23.124;2022-08-27T02:49:09;6.07;;;5.10;;
7929;SDS011;4010;42.698;23.124;2022-08-27T02:51:37;9.83;;;5.17;;
7929;SDS011;4010;42.698;23.124;2022-08-27T02:54:04;10.23;;;5.23;;
7929;SDS011;4010;42.698;23.124;2022-08-27T02:56:31;6.57;;;5.17;;
7929;SDS011;4010;42.698;23.124;2022-08-27T02:58:58;8.60;;;5.53;;
7929;SDS011;4010;42.698;23.124;2022-08-27T03:01:25;10.27;;;5.93;;
7929;SDS011;4010;42.698;23.124;2022-08-27T03:03:52;11.73;;;5.47;;
7929;SDS011;4010;42.698;23.124;2022-08-27T03:06:19;8.53;;;5.10;;
7929;SDS011;4010;42.698;23.124;2022-08-27T03:08:47;12.37;;;5.67;;
7929;SDS011;4010;42.698;23.124;2022-08-27T03:11:14;8.17;;;5.33;;
7929;SDS011;4010;42.698;23.124;2022-08-27T03:13:41;10.50;;;5.23;;
7929;SDS011;4010;42.698;23.124;2022-08-27T03:16:08;7.63;;;5.00;;
7929;SDS011;4010;42.698;23.124;2022-08-27T03:18:34;9.43;;;5.83;;
7929;SDS011;4010;42.698;23.124;2022-08-27T03:21:00;10.77;;;4.87;;
7929;SDS011;4010;42.698;23.124;2022-08-27T03:23:28;11.67;;;5.43;;
7929;SDS011;4010;42.698;23.124;2022-08-27T03:25:59;8.20;;;5.13;;
7929;SDS011;4010;42.698;23.124;2022-08-27T03:28:30;8.30;;;5.20;;
7929;SDS011;4010;42.698;23.124;2022-08-27T03:30:58;10.70;;;5.30;;
7929;SDS011;4010;42.698;23.124;2022-08-27T03:33:26;7.03;;;4.77;;
7929;SDS011;4010;42.698;23.124;2022-08-27T03:35:54;7.27;;;4.70;;
7929;SDS011;4010;42.698;23.124;2022-08-27T03:38:21;10.93;;;5.10;;
7929;SDS011;4010;42.698;23.124;2022-08-27T03:40:48;6.73;;;5.00;;
7929;SDS011;4010;42.698;23.124;2022-08-27T03:43:17;7.13;;;4.70;;
7929;SDS011;4010;42.698;23.124;2022-08-27T03:45:46;7.33;;;4.47;;
7929;SDS011;4010;42.698;23.124;2022-08-27T03:48:13;9.03;;;4.70;;
7929;SDS011;4010;42.698;23.124;2022-08-27T03:50:43;11.87;;;5.23;;
7929;SDS011;4010;42.698;23.124;2022-08-27T03:53:11;9.10;;;4.60;;
7929;SDS011;4010;42.698;23.124;2022-08-27T03:55:38;7.30;;;4.50;;
7929;SDS011;4010;42.698;23.124;2022-08-27T03:58:06;8.33;;;4.67;;
7929;SDS011;4010;42.698;23.124;2022-08-27T04:00:35;7.30;;;4.77;;
7929;SDS011;4010;42.698;23.124;2022-08-27T04:03:01;9.87;;;4.30;;
7929;SDS011;4010;42.698;23.124;2022-08-27T04:05:29;7.70;;;4.73;;
7929;SDS011;4010;42.698;23.124;2022-08-27T04:07:56;10.53;;;4.67;;
7929;SDS011;4010;42.698;23.124;2022-08-27T04:10:22;8.90;;;4.43;;
7929;SDS011;4010;42.698;23.124;2022-08-27T04:12:49;6.90;;;4.30;;
7929;SDS011;4010;42.698;23.124;2022-08-27T04:15:16;6.27;;;4.10;;
7929;SDS011;4010;42.698;23.124;2022-08-27T04:17:44;7.10;;;3.80;;
7929;SDS011;4010;42.698;23.124;2022-08-27T04:20:11;8.00;;;3.70;;
7929;SDS011;4010;42.698;23.124;2022-08-27T04:22:38;6.53;;;4.13;;
7929;SDS011;4010;42.698;23.124;2022-08-27T04:25:05;4.97;;;4.03;;
7929;SDS011;4010;42.698;23.124;2022-08-27T04:27:33;8.83;;;4.03;;
7929;SDS011;4010;42.698;23.124;2022-08-27T04:30:00;6.73;;;3.73;;
7929;SDS011;4010;42.698;23.124;2022-08-27T04:32:28;8.17;;;3.30;;
7929;SDS011;4010;42.698;23.124;2022-08-27T04:34:57;5.57;;;3.50;;
7929;SDS011;4010;42.698;23.124;2022-08-27T04:37:25;5.27;;;3.13;;
7929;SDS011;4010;42.698;23.124;2022-08-27T04:39:55;5.60;;;3.23;;
7929;SDS011;4010;42.698;23.124;2022-08-27T04:42:22;6.83;;;3.20;;
7929;SDS011;4010;42.698;23.124;2022-08-27T04:44:49;4.33;;;2.90;;
7929;SDS011;4010;42.698;23.124;2022-08-27T04:47:17;8.93;;;3.60;;
7929;SDS011;4010;42.698;23.124;2022-08-27T04:49:44;5.07;;;3.57;;
7929;SDS011;4010;42.698;23.124;2022-08-27T04:52:13;9.10;;;3.70;;
7929;SDS011;4010;42.698;23.124;2022-08-27T04:54:40;9.47;;;3.70;;
7929;SDS011;4010;42.698;23.124;2022-08-27T04:57:07;7.07;;;3.90;;
7929;SDS011;4010;42.698;23.124;2022-08-27T04:59:34;6.73;;;4.03;;
7929;SDS011;4010;42.698;23.124;2022-08-27T05:02:01;10.10;;;3.80;;
7929;SDS011;4010;42.698;23.124;2022-08-27T05:04:29;8.47;;;4.27;;
7929;SDS011;4010;42.698;23.124;2022-08-27T05:06:56;9.77;;;3.90;;
7929;SDS011;4010;42.698;23.124;2022-08-27T05:09:24;10.50;;;4.03;;
7929;SDS011;4010;42.698;23.124;2022-08-27T05:11:51;5.93;;;3.73;;
7929;SDS011;4010;42.698;23.124;2022-08-27T05:14:19;9.07;;;3.97;;
7929;SDS011;4010;42.698;23.124;2022-08-27T05:16:48;6.93;;;4.07;;
7929;SDS011;4010;42.698;23.124;2022-08-27T05:19:14;5.67;;;3.67;;
7929;SDS011;4010;42.698;23.124;2022-08-27T05:21:45;7.67;;;3.90;;
7929;SDS011;4010;42.698;23.124;2022-08-27T05:24:13;7.47;;;3.90;;
7929;SDS011;4010;42.698;23.124;2022-08-27T05:26:43;6.77;;;4.23;;
7929;SDS011;4010;42.698;23.124;2022-08-27T05:29:10;9.17;;;3.93;;
7929;SDS011;4010;42.698;23.124;2022-08-27T05:31:38;7.90;;;4.00;;
7929;SDS011;4010;42.698;23.124;2022-08-27T05:34:05;7.57;;;4.60;;
7929;SDS011;4010;42.698;23.124;2022-08-27T05:36:33;9.90;;;4.10;;
7929;SDS011;4010;42.698;23.124;2022-08-27T05:39:02;8.00;;;4.30;;
7929;SDS011;4010;42.698;23.124;2022-08-27T05:41:30;11.20;;;4.47;;
7929;SDS011;4010;42.698;23.124;2022-08-27T05:44:00;6.00;;;3.97;;
7929;SDS011;4010;42.698;23.124;2022-08-27T05:46:29;8.13;;;4.13;;
7929;SDS011;4010;42.698;23.124;2022-08-27T05:48:56;11.77;;;4.10;;
7929;SDS011;4010;42.698;23.124;2022-08-27T05:51:24;9.27;;;4.23;;
7929;SDS011;4010;42.698;23.124;2022-08-27T05:53:56;8.57;;;3.93;;
7929;SDS011;4010;42.698;23.124;2022-08-27T05:56:26;7.57;;;4.00;;
7929;SDS011;4010;42.698;23.124;2022-08-27T05:58:54;7.70;;;3.97;;
7929;SDS011;4010;42.698;23.124;2022-08-27T06:01:41;7.60;;;4.30;;
7929;SDS011;4010;42.698;23.124;2022-08-27T06:04:09;10.20;;;3.73;;
7929;SDS011;4010;42.698;23.124;2022-08-27T06:06:38;12.53;;;4.00;;
7929;SDS011;4010;42.698;23.124;2022-08-27T06:09:06;9.17;;;4.00;;
7929;SDS011;4010;42.698;23.124;2022-08-27T06:11:34;9.97;;;4.17;;
7929;SDS011;4010;42.698;23.124;2022-08-27T06:14:01;10.60;;;4.33;;
7929;SDS011;4010;42.698;23.124;2022-08-27T06:16:28;7.73;;;4.00;;
7929;SDS011;4010;42.698;23.124;2022-08-27T06:18:57;10.27;;;4.93;;
7929;SDS011;4010;42.698;23.124;2022-08-27T06:21:24;6.33;;;3.73;;
7929;SDS011;4010;42.698;23.124;2022-08-27T06:23:51;9.10;;;4.10;;
7929;SDS011;4010;42.698;23.124;2022-08-27T06:26:19;7.67;;;4.20;;
7929;SDS011;4010;42.698;23.124;2022-08-27T06:28:48;7.73;;;4.07;;
7929;SDS011;4010;42.698;23.124;2022-08-27T06:31:15;10.17;;;4.63;;
7929;SDS011;4010;42.698;23.124;2022-08-27T06:33:43;7.60;;;3.93;;
7929;SDS011;4010;42.698;23.124;2022-08-27T06:36:13;10.37;;;4.53;;
7929;SDS011;4010;42.698;23.124;2022-08-27T06:38:41;6.50;;;4.10;;
7929;SDS011;4010;42.698;23.124;2022-08-27T06:41:08;7.77;;;4.23;;
7929;SDS011;4010;42.698;23.124;2022-08-27T06:43:37;8.10;;;4.57;;
7929;SDS011;4010;42.698;23.124;2022-08-27T06:46:06;8.27;;;4.00;;
7929;SDS011;4010;42.698;23.124;2022-08-27T06:48:35;8.13;;;3.80;;
7929;SDS011;4010;42.698;23.124;2022-08-27T06:51:06;5.40;;;4.13;;
7929;SDS011;4010;42.698;23.124;2022-08-27T06:53:35;9.80;;;4.03;;
7929;SDS011;4010;42.698;23.124;2022-08-27T06:56:02;6.30;;;4.00;;
7929;SDS011;4010;42.698;23.124;2022-08-27T06:58:29;6.87;;;4.30;;
7929;SDS011;4010;42.698;23.124;2022-08-27T07:00:57;10.43;;;4.40;;
7929;SDS011;4010;42.698;23.124;2022-08-27T07:03:24;11.73;;;4.57;;
7929;SDS011;4010;42.698;23.124;2022-08-27T07:05:51;8.40;;;4.17;;
7929;SDS011;4010;42.698;23.124;2022-08-27T07:08:17;7.60;;;3.77;;
7929;SDS011;4010;42.698;23.124;2022-08-27T07:10:46;7.60;;;4.13;;
7929;SDS011;4010;42.698;23.124;2022-08-27T07:13:12;6.10;;;4.00;;
7929;SDS011;4010;42.698;23.124;2022-08-27T07:15:39;9.00;;;4.07;;
7929;SDS011;4010;42.698;23.124;2022-08-27T07:18:06;13.10;;;5.03;;
7929;SDS011;4010;42.698;23.124;2022-08-27T07:20:33;7.00;;;5.07;;
7929;SDS011;4010;42.698;23.124;2022-08-27T07:22:59;9.10;;;4.20;;
7929;SDS011;4010;42.698;23.124;2022-08-27T07:25:26;9.23;;;4.57;;
7929;SDS011;4010;42.698;23.124;2022-08-27T07:27:57;6.13;;;4.03;;
7929;SDS011;4010;42.698;23.124;2022-08-27T07:30:25;8.10;;;3.90;;
7929;SDS011;4010;42.698;23.124;2022-08-27T07:32:52;9.03;;;4.60;;
7929;SDS011;4010;42.698;23.124;2022-08-27T07:35:19;9.90;;;4.07;;
7929;SDS011;4010;42.698;23.124;2022-08-27T07:37:46;7.57;;;4.30;;
7929;SDS011;4010;42.698;23.124;2022-08-27T07:40:13;7.13;;;4.57;;
7929;SDS011;4010;42.698;23.124;2022-08-27T07:42:41;9.43;;;4.03;;
7929;SDS011;4010;42.698;23.124;2022-08-27T07:45:24;11.63;;;5.22;;
7929;SDS011;4010;42.698;23.124;2022-08-27T07:47:51;10.37;;;4.97;;
7929;SDS011;4010;42.698;23.124;2022-08-27T07:50:18;8.70;;;4.63;;
7929;SDS011;4010;42.698;23.124;2022-08-27T07:52:47;8.37;;;4.30;;
7929;SDS011;4010;42.698;23.124;2022-08-27T07:55:14;9.83;;;4.43;;
7929;SDS011;4010;42.698;23.124;2022-08-27T07:57:41;7.43;;;4.80;;
7929;SDS011;4010;42.698;23.124;2022-08-27T08:00:09;16.50;;;5.10;;
7929;SDS011;4010;42.698;23.124;2022-08-27T08:02:38;8.17;;;4.70;;
7929;SDS011;4010;42.698;23.124;2022-08-27T08:05:09;11.67;;;4.77;;
7929;SDS011;4010;42.698;23.124;2022-08-27T08:07:38;7.20;;;4.47;;
7929;SDS011;4010;42.698;23.124;2022-08-27T08:10:05;13.23;;;5.23;;
7929;SDS011;4010;42.698;23.124;2022-08-27T08:12:33;13.50;;;5.10;;
7929;SDS011;4010;42.698;23.124;2022-08-27T08:15:01;8.13;;;5.13;;
7929;SDS011;4010;42.698;23.124;2022-08-27T08:17:28;11.37;;;4.40;;
7929;SDS011;4010;42.698;23.124;2022-08-27T08:19:56;8.27;;;5.37;;
7929;SDS011;4010;42.698;23.124;2022-08-27T08:22:23;8.37;;;4.60;;
7929;SDS011;4010;42.698;23.124;2022-08-27T08:24:49;6.83;;;4.77;;
7929;SDS011;4010;42.698;23.124;2022-08-27T08:27:17;11.93;;;4.83;;
7929;SDS011;4010;42.698;23.124;2022-08-27T08:29:44;15.40;;;5.50;;
7929;SDS011;4010;42.698;23.124;2022-08-27T08:32:11;9.57;;;4.93;;
7929;SDS011;4010;42.698;23.124;2022-08-27T08:34:38;9.73;;;4.77;;
7929;SDS011;4010;42.698;23.124;2022-08-27T08:37:06;6.53;;;4.57;;
7929;SDS011;4010;42.698;23.124;2022-08-27T08:39:33;10.33;;;4.30;;
7929;SDS011;4010;42.698;23.124;2022-08-27T08:42:03;6.83;;;4.40;;
7929;SDS011;4010;42.698;23.124;2022-08-27T08:44:33;9.97;;;4.33;;
7929;SDS011;4010;42.698;23.124;2022-08-27T08:47:03;7.10;;;4.47;;
7929;SDS011;4010;42.698;23.124;2022-08-27T08:49:37;11.73;;;4.60;;
7929;SDS011;4010;42.698;23.124;2022-08-27T08:52:12;7.30;;;4.40;;
7929;SDS011;4010;42.698;23.124;2022-08-27T08:54:47;9.10;;;4.67;;
7929;SDS011;4010;42.698;23.124;2022-08-27T08:57:17;11.43;;;4.37;;
7929;SDS011;4010;42.698;23.124;2022-08-27T08:59:50;10.40;;;4.90;;
7929;SDS011;4010;42.698;23.124;2022-08-27T09:02:21;9.37;;;5.07;;
7929;SDS011;4010;42.698;23.124;2022-08-27T09:04:48;10.40;;;4.00;;
7929;SDS011;4010;42.698;23.124;2022-08-27T09:07:18;8.23;;;4.10;;
7929;SDS011;4010;42.698;23.124;2022-08-27T09:09:52;8.03;;;3.93;;
7929;SDS011;4010;42.698;23.124;2022-08-27T09:12:25;9.10;;;3.80;;
7929;SDS011;4010;42.698;23.124;2022-08-27T09:14:55;14.83;;;4.23;;
7929;SDS011;4010;42.698;23.124;2022-08-27T09:17:26;8.50;;;3.77;;
7929;SDS011;4010;42.698;23.124;2022-08-27T09:19:52;10.03;;;3.70;;
7929;SDS011;4010;42.698;23.124;2022-08-27T09:22:22;5.60;;;3.87;;
7929;SDS011;4010;42.698;23.124;2022-08-27T09:25:09;10.17;;;3.93;;
7929;SDS011;4010;42.698;23.124;2022-08-27T09:27:41;8.90;;;3.90;;
7929;SDS011;4010;42.698;23.124;2022-08-27T09:30:09;10.63;;;3.70;;
7929;SDS011;4010;42.698;23.124;2022-08-27T09:32:38;13.17;;;4.20;;
7929;SDS011;4010;42.698;23.124;2022-08-27T09:35:06;17.60;;;4.50;;
7929;SDS011;4010;42.698;23.124;2022-08-27T09:37:39;10.67;;;4.40;;
7929;SDS011;4010;42.698;23.124;2022-08-27T09:40:13;8.67;;;3.67;;
7929;SDS011;4010;42.698;23.124;2022-08-27T09:42:42;8.63;;;4.00;;
7929;SDS011;4010;42.698;23.124;2022-08-27T09:45:13;9.07;;;4.60;;
7929;SDS011;4010;42.698;23.124;2022-08-27T09:47:42;10.90;;;3.03;;
7929;SDS011;4010;42.698;23.124;2022-08-27T09:50:11;6.17;;;3.20;;
7929;SDS011;4010;42.698;23.124;2022-08-27T09:52:46;6.97;;;3.77;;
7929;SDS011;4010;42.698;23.124;2022-08-27T09:55:25;7.10;;;3.60;;
7929;SDS011;4010;42.698;23.124;2022-08-27T09:57:54;12.07;;;3.27;;
7929;SDS011;4010;42.698;23.124;2022-08-27T10:00:26;6.80;;;2.83;;
7929;SDS011;4010;42.698;23.124;2022-08-27T10:03:01;9.70;;;3.97;;
7929;SDS011;4010;42.698;23.124;2022-08-27T10:05:29;5.93;;;3.30;;
7929;SDS011;4010;42.698;23.124;2022-08-27T10:07:59;11.53;;;4.00;;
7929;SDS011;4010;42.698;23.124;2022-08-27T10:10:35;8.27;;;3.60;;
7929;SDS011;4010;42.698;23.124;2022-08-27T10:13:06;9.00;;;3.77;;
7929;SDS011;4010;42.698;23.124;2022-08-27T10:15:39;12.07;;;3.50;;
7929;SDS011;4010;42.698;23.124;2022-08-27T10:18:23;8.10;;;3.30;;
7929;SDS011;4010;42.698;23.124;2022-08-27T10:21:00;7.60;;;3.70;;
7929;SDS011;4010;42.698;23.124;2022-08-27T10:23:36;9.30;;;3.77;;
7929;SDS011;4010;42.698;23.124;2022-08-27T10:26:08;8.83;;;3.93;;
7929;SDS011;4010;42.698;23.124;2022-08-27T10:28:48;12.20;;;4.70;;
7929;SDS011;4010;42.698;23.124;2022-08-27T10:31:26;11.97;;;4.40;;
7929;SDS011;4010;42.698;23.124;2022-08-27T10:34:00;13.60;;;4.53;;
7929;SDS011;4010;42.698;23.124;2022-08-27T10:36:44;15.77;;;5.10;;
7929;SDS011;4010;42.698;23.124;2022-08-27T10:39:22;13.90;;;4.70;;
7929;SDS011;4010;42.698;23.124;2022-08-27T10:42:03;6.83;;;4.47;;
7929;SDS011;4010;42.698;23.124;2022-08-27T10:44:45;14.03;;;4.87;;
7929;SDS011;4010;42.698;23.124;2022-08-27T10:47:26;8.37;;;4.40;;
7929;SDS011;4010;42.698;23.124;2022-08-27T10:50:05;8.07;;;4.50;;
7929;SDS011;4010;42.698;23.124;2022-08-27T10:52:37;11.73;;;4.83;;
7929;SDS011;4010;42.698;23.124;2022-08-27T10:55:11;7.57;;;4.53;;
7929;SDS011;4010;42.698;23.124;2022-08-27T10:57:53;10.20;;;4.87;;
7929;SDS011;4010;42.698;23.124;2022-08-27T11:00:30;7.80;;;4.63;;
7929;SDS011;4010;42.698;23.124;2022-08-27T11:03:06;8.17;;;4.90;;
7929;SDS011;4010;42.698;23.124;2022-08-27T11:05:38;8.83;;;4.60;;
7929;SDS011;4010;42.698;23.124;2022-08-27T11:08:10;13.07;;;5.20;;
7929;SDS011;4010;42.698;23.124;2022-08-27T11:10:45;11.53;;;5.17;;
7929;SDS011;4010;42.698;23.124;2022-08-27T11:13:16;8.17;;;5.10;;
7929;SDS011;4010;42.698;23.124;2022-08-27T11:15:51;9.00;;;5.17;;
7929;SDS011;4010;42.698;23.124;2022-08-27T11:18:22;10.80;;;4.80;;
7929;SDS011;4010;42.698;23.124;2022-08-27T11:20:58;10.20;;;4.60;;
7929;SDS011;4010;42.698;23.124;2022-08-27T11:23:29;10.40;;;4.90;;
7929;SDS011;4010;42.698;23.124;2022-08-27T11:26:03;11.50;;;5.00;;
7929;SDS011;4010;42.698;23.124;2022-08-27T11:28:31;9.80;;;4.83;;
7929;SDS011;4010;42.698;23.124;2022-08-27T11:31:04;12.23;;;4.40;;
7929;SDS011;4010;42.698;23.124;2022-08-27T11:33:37;10.83;;;4.77;;
7929;SDS011;4010;42.698;23.124;2022-08-27T11:36:25;11.60;;;5.13;;
7929;SDS011;4010;42.698;23.124;2022-08-27T11:39:03;12.10;;;5.17;;
7929;SDS011;4010;42.698;23.124;2022-08-27T11:44:32;10.03;;;5.20;;
7929;SDS011;4010;42.698;23.124;2022-08-27T11:47:07;6.50;;;5.17;;
7929;SDS011;4010;42.698;23.124;2022-08-27T11:49:40;8.03;;;4.97;;
7929;SDS011;4010;42.698;23.124;2022-08-27T11:52:09;13.27;;;5.37;;
7929;SDS011;4010;42.698;23.124;2022-08-27T11:54:44;13.00;;;4.90;;
7929;SDS011;4010;42.698;23.124;2022-08-27T11:57:14;6.57;;;4.73;;
7929;SDS011;4010;42.698;23.124;2022-08-27T11:59:41;8.50;;;5.07;;
7929;SDS011;4010;42.698;23.124;2022-08-27T12:02:10;9.60;;;4.90;;
7929;SDS011;4010;42.698;23.124;2022-08-27T12:04:45;5.00;;;4.47;;
7929;SDS011;4010;42.698;23.124;2022-08-27T12:10:02;9.50;;;4.87;;
7929;SDS011;4010;42.698;23.124;2022-08-27T12:12:47;6.40;;;4.53;;
7929;SDS011;4010;42.698;23.124;2022-08-27T12:15:24;9.03;;;4.63;;
7929;SDS011;4010;42.698;23.124;2022-08-27T12:17:59;9.13;;;4.97;;
7929;SDS011;4010;42.698;23.124;2022-08-27T12:20:37;7.97;;;4.27;;
7929;SDS011;4010;42.698;23.124;2022-08-27T12:23:23;9.47;;;4.60;;
7929;SDS011;4010;42.698;23.124;2022-08-27T12:31:48;9.33;;;4.33;;
7929;SDS011;4010;42.698;23.124;2022-08-27T12:34:18;10.60;;;4.80;;
7929;SDS011;4010;42.698;23.124;2022-08-27T12:36:49;6.73;;;3.97;;
7929;SDS011;4010;42.698;23.124;2022-08-27T12:39:18;6.00;;;3.63;;
7929;SDS011;4010;42.698;23.124;2022-08-27T12:41:48;5.73;;;3.90;;
7929;SDS011;4010;42.698;23.124;2022-08-27T12:44:23;6.90;;;4.00;;
7929;SDS011;4010;42.698;23.124;2022-08-27T12:46:52;5.97;;;4.20;;
7929;SDS011;4010;42.698;23.124;2022-08-27T12:49:26;6.87;;;3.93;;
7929;SDS011;4010;42.698;23.124;2022-08-27T12:51:59;10.47;;;4.83;;
7929;SDS011;4010;42.698;23.124;2022-08-27T12:54:34;5.90;;;4.30;;
7929;SDS011;4010;42.698;23.124;2022-08-27T12:57:11;7.83;;;4.40;;
7929;SDS011;4010;42.698;23.124;2022-08-27T12:59:50;6.73;;;4.33;;
7929;SDS011;4010;42.698;23.124;2022-08-27T13:02:33;7.97;;;4.00;;
7929;SDS011;4010;42.698;23.124;2022-08-27T13:05:21;9.03;;;3.83;;
7929;SDS011;4010;42.698;23.124;2022-08-27T13:07:49;5.00;;;3.70;;
7929;SDS011;4010;42.698;23.124;2022-08-27T13:10:26;7.57;;;3.80;;
7929;SDS011;4010;42.698;23.124;2022-08-27T13:13:05;9.10;;;4.17;;
7929;SDS011;4010;42.698;23.124;2022-08-27T13:15:35;7.37;;;3.50;;
7929;SDS011;4010;42.698;23.124;2022-08-27T13:18:07;8.27;;;4.10;;
7929;SDS011;4010;42.698;23.124;2022-08-27T13:20:36;9.70;;;4.00;;
7929;SDS011;4010;42.698;23.124;2022-08-27T13:23:05;6.50;;;3.90;;
7929;SDS011;4010;42.698;23.124;2022-08-27T13:25:38;8.13;;;4.20;;
7929;SDS011;4010;42.698;23.124;2022-08-27T13:28:07;6.40;;;3.97;;
7929;SDS011;4010;42.698;23.124;2022-08-27T13:30:39;7.90;;;4.00;;
7929;SDS011;4010;42.698;23.124;2022-08-27T13:33:09;5.67;;;3.53;;
7929;SDS011;4010;42.698;23.124;2022-08-27T13:35:40;9.90;;;3.97;;
7929;SDS011;4010;42.698;23.124;2022-08-27T13:38:08;9.43;;;4.43;;
7929;SDS011;4010;42.698;23.124;2022-08-27T13:40:36;7.10;;;4.13;;
7929;SDS011;4010;42.698;23.124;2022-08-27T13:43:16;4.60;;;3.33;;
7929;SDS011;4010;42.698;23.124;2022-08-27T13:45:47;5.13;;;3.40;;
7929;SDS011;4010;42.698;23.124;2022-08-27T13:48:15;8.47;;;4.03;;
7929;SDS011;4010;42.698;23.124;2022-08-27T13:50:46;7.70;;;3.83;;
7929;SDS011;4010;42.698;23.124;2022-08-27T13:53:17;7.70;;;4.07;;
7929;SDS011;4010;42.698;23.124;2022-08-27T13:56:05;7.83;;;4.00;;
7929;SDS011;4010;42.698;23.124;2022-08-27T13:58:33;7.13;;;3.93;;
7929;SDS011;4010;42.698;23.124;2022-08-27T14:01:10;7.23;;;3.73;;
7929;SDS011;4010;42.698;23.124;2022-08-27T14:03:45;10.07;;;4.20;;
7929;SDS011;4010;42.698;23.124;2022-08-27T14:06:23;7.20;;;4.53;;
7929;SDS011;4010;42.698;23.124;2022-08-27T14:08:52;10.53;;;4.00;;
7929;SDS011;4010;42.698;23.124;2022-08-27T14:11:21;9.67;;;3.87;;
7929;SDS011;4010;42.698;23.124;2022-08-27T14:13:51;8.67;;;3.83;;
7929;SDS011;4010;42.698;23.124;2022-08-27T14:16:27;6.77;;;3.67;;
7929;SDS011;4010;42.698;23.124;2022-08-27T14:19:01;5.40;;;3.40;;
7929;SDS011;4010;42.698;23.124;2022-08-27T14:21:31;6.30;;;3.90;;
7929;SDS011;4010;42.698;23.124;2022-08-27T14:23:59;7.07;;;3.60;;
7929;SDS011;4010;42.698;23.124;2022-08-27T14:26:25;5.90;;;3.93;;
7929;SDS011;4010;42.698;23.124;2022-08-27T14:28:53;10.00;;;3.50;;
7929;SDS011;4010;42.698;23.124;2022-08-27T14:31:21;5.27;;;3.90;;
7929;SDS011;4010;42.698;23.124;2022-08-27T14:33:50;5.53;;;4.23;;
7929;SDS011;4010;42.698;23.124;2022-08-27T14:36:18;7.70;;;4.33;;
7929;SDS011;4010;42.698;23.124;2022-08-27T14:38:46;12.77;;;3.67;;
7929;SDS011;4010;42.698;23.124;2022-08-27T14:41:15;7.97;;;3.87;;
7929;SDS011;4010;42.698;23.124;2022-08-27T14:43:42;6.33;;;3.77;;
7929;SDS011;4010;42.698;23.124;2022-08-27T14:46:10;7.23;;;3.40;;
7929;SDS011;4010;42.698;23.124;2022-08-27T14:48:42;9.57;;;3.87;;
7929;SDS011;4010;42.698;23.124;2022-08-27T14:51:12;7.53;;;4.13;;
7929;SDS011;4010;42.698;23.124;2022-08-27T14:53:42;7.67;;;4.07;;
7929;SDS011;4010;42.698;23.124;2022-08-27T14:56:08;8.20;;;4.00;;
7929;SDS011;4010;42.698;23.124;2022-08-27T14:58:35;7.47;;;3.93;;
7929;SDS011;4010;42.698;23.124;2022-08-27T15:01:02;6.77;;;3.30;;
7929;SDS011;4010;42.698;23.124;2022-08-27T15:03:29;8.97;;;3.67;;
7929;SDS011;4010;42.698;23.124;2022-08-27T15:05:58;5.73;;;3.63;;
7929;SDS011;4010;42.698;23.124;2022-08-27T15:08:26;6.27;;;4.03;;
7929;SDS011;4010;42.698;23.124;2022-08-27T15:10:52;9.87;;;3.77;;
7929;SDS011;4010;42.698;23.124;2022-08-27T15:13:19;8.43;;;3.70;;
7929;SDS011;4010;42.698;23.124;2022-08-27T15:15:46;8.37;;;3.60;;
7929;SDS011;4010;42.698;23.124;2022-08-27T15:18:12;5.67;;;3.93;;
7929;SDS011;4010;42.698;23.124;2022-08-27T15:20:39;7.80;;;3.80;;
7929;SDS011;4010;42.698;23.124;2022-08-27T15:23:07;7.70;;;3.80;;
7929;SDS011;4010;42.698;23.124;2022-08-27T15:25:37;7.17;;;3.63;;